createdAt,value
2023-03-13T00:01:25.002Z,19.45
2023-03-13T00:06:34.758Z,19.05
2023-03-13T00:11:39.559Z,17.98
2023-03-13T00:16:44.475Z,16.23
2023-03-13T00:21:51.898Z,18.17
2023-03-13T00:27:03.312Z,18.40
2023-03-13T00:32:08.481Z,18.23
2023-03-13T00:37:15.827Z,19.58
2023-03-13T00:42:20.757Z,18.23
2023-03-13T00:47:25.405Z,18.58
2023-03-13T00:52:32.716Z,16.48
2023-03-13T00:57:38.748Z,15.48
2023-03-13T01:02:46.569Z,15.55
2023-03-13T01:07:54.066Z,15.25
2023-03-13T01:12:58.714Z,15.98
2023-03-13T01:18:03.645Z,17.00
2023-03-13T01:23:11.064Z,16.92
2023-03-13T01:28:15.766Z,17.63
2023-03-13T01:33:20.522Z,18.02
2023-03-13T01:38:28.083Z,20.65
2023-03-13T01:43:33.779Z,22.80
2023-03-13T01:48:40.833Z,30.98
2023-03-13T01:53:50.395Z,29.33
2023-03-13T01:58:55.678Z,25.43
2023-03-13T02:04:01.017Z,22.83
2023-03-13T02:09:11.087Z,21.52
2023-03-13T02:14:16.327Z,23.20
2023-03-13T02:19:22.928Z,26.10
2023-03-13T02:24:34.910Z,21.70
2023-03-13T02:29:42.290Z,23.35
2023-03-13T02:34:47.651Z,22.65
2023-03-13T02:39:53.501Z,22.08
2023-03-13T02:45:00.798Z,24.90
2023-03-13T02:50:05.631Z,23.42
2023-03-13T02:55:12.561Z,22.73
2023-03-13T03:00:21.054Z,22.48
2023-03-13T03:05:26.041Z,23.70
2023-03-13T03:10:30.756Z,21.88
2023-03-13T03:15:38.050Z,23.23
2023-03-13T03:20:42.769Z,22.60
2023-03-13T03:25:47.651Z,22.63
2023-03-13T03:30:55.042Z,21.90
2023-03-13T03:36:02.461Z,21.98
2023-03-13T03:41:07.473Z,22.23
2023-03-13T03:46:14.889Z,21.00
2023-03-13T03:51:19.716Z,21.13
2023-03-13T03:56:27.339Z,22.05
2023-03-13T04:01:34.730Z,23.33
2023-03-13T04:06:39.464Z,22.35
2023-03-13T04:11:44.103Z,24.63
2023-03-13T04:16:51.423Z,26.13
2023-03-13T04:21:56.532Z,26.23
2023-03-13T04:27:02.802Z,26.65
2023-03-13T04:32:10.206Z,26.67
2023-03-13T04:37:14.938Z,27.33
2023-03-13T04:42:19.689Z,27.73
2023-03-13T04:47:26.986Z,25.40
2023-03-13T04:52:31.637Z,26.25
2023-03-13T04:57:36.312Z,26.50
2023-03-13T05:02:43.587Z,26.95
2023-03-13T05:07:48.295Z,29.20
2023-03-13T05:12:52.997Z,27.27
2023-03-13T05:18:00.356Z,27.10
2023-03-13T05:23:04.989Z,27.60
2023-03-13T05:28:09.936Z,25.48
2023-03-13T05:33:19.495Z,25.58
2023-03-13T05:38:24.157Z,23.43
2023-03-13T05:43:28.970Z,22.98
2023-03-13T05:48:36.309Z,21.85
2023-03-13T05:53:41.213Z,25.13
2023-03-13T05:58:45.913Z,22.45
2023-03-13T06:03:53.253Z,26.75
2023-03-13T06:08:58.155Z,24.95
2023-03-13T06:14:02.737Z,22.73
2023-03-13T06:19:10.088Z,24.70
2023-03-13T06:24:14.752Z,22.80
2023-03-13T06:29:20.287Z,23.65
2023-03-13T06:34:27.656Z,19.77
2023-03-13T06:39:32.468Z,20.35
2023-03-13T06:44:37.513Z,20.85
2023-03-13T06:49:44.859Z,20.55
2023-03-13T06:54:51.885Z,20.65
2023-03-13T06:59:56.719Z,23.55
2023-03-13T07:05:06.003Z,19.83
2023-03-13T07:10:11.708Z,17.87
2023-03-13T07:15:16.418Z,19.50
2023-03-13T07:20:23.862Z,15.10
2023-03-13T07:25:28.596Z,16.30
2023-03-13T07:30:33.310Z,18.77
2023-03-13T07:35:41.256Z,15.07
2023-03-13T07:40:50.789Z,18.42
2023-03-13T07:45:56.436Z,19.42
2023-03-13T07:51:03.974Z,13.95
2023-03-13T07:56:09.999Z,11.50
2023-03-13T08:01:15.601Z,12.32
2023-03-13T08:06:23.714Z,13.02
2023-03-13T08:11:29.460Z,12.90
2023-03-13T08:16:35.412Z,11.52
2023-03-13T08:21:42.932Z,12.68
2023-03-13T08:26:47.774Z,11.00
2023-03-13T08:31:53.948Z,11.15
2023-03-13T08:37:01.548Z,10.63
2023-03-13T08:42:06.388Z,8.65
2023-03-13T08:47:11.601Z,11.40
2023-03-13T08:52:18.909Z,10.70
2023-03-13T08:57:23.554Z,10.40
2023-03-13T09:02:30.719Z,10.18
2023-03-13T09:07:38.916Z,9.38
2023-03-13T09:12:43.668Z,9.82
2023-03-13T09:44:51.239Z,10.35
2023-03-13T09:49:57.748Z,8.38
2023-03-13T09:55:04.732Z,10.38
2023-03-13T10:00:16.048Z,9.95
2023-03-13T10:05:23.761Z,11.40
2023-03-13T10:10:31.975Z,9.77
2023-03-13T10:15:42.397Z,10.52
2023-03-13T10:20:49.028Z,9.25
2023-03-13T10:25:53.890Z,8.27
2023-03-13T10:31:07.040Z,10.38
2023-03-13T10:36:12.736Z,8.60
2023-03-13T10:41:22.758Z,7.95
2023-03-13T10:46:31.276Z,8.80
2023-03-13T10:51:39.541Z,9.25
2023-03-13T10:56:44.360Z,9.60
2023-03-13T11:01:51.746Z,8.07
2023-03-13T11:07:01.330Z,10.57
2023-03-13T11:17:22.339Z,8.70
2023-03-13T11:22:51.023Z,9.35
2023-03-13T11:28:02.726Z,10.70
2023-03-13T11:33:17.528Z,9.40
2023-03-13T11:38:23.921Z,8.85
2023-03-13T11:43:33.320Z,8.93
2023-03-13T11:48:46.066Z,10.80
2023-03-13T11:54:04.758Z,8.07
2023-03-13T11:59:21.968Z,8.25
2023-03-13T12:04:31.317Z,9.90
2023-03-13T12:09:37.768Z,8.77
2023-03-13T12:14:44.164Z,7.80
2023-03-13T12:19:55.120Z,7.28
2023-03-13T12:25:06.180Z,6.80
2023-03-13T12:30:22.178Z,9.05
2023-03-13T12:35:33.536Z,7.30
2023-03-13T12:40:40.779Z,7.47
2023-03-13T12:45:53.038Z,7.38
2023-03-13T12:51:06.969Z,6.57
2023-03-13T12:56:21.859Z,34.78
2023-03-13T13:01:33.648Z,17.67
2023-03-13T13:06:53.459Z,15.68
2023-03-13T13:12:01.708Z,5.28
2023-03-13T13:17:16.839Z,7.25
2023-03-13T13:22:57.697Z,7.13
2023-03-13T13:28:27.743Z,10.50
2023-03-13T13:33:42.199Z,4.38
2023-03-13T13:38:47.036Z,6.30
2023-03-13T13:44:14.429Z,4.82
2023-03-13T13:49:20.229Z,5.63
2023-03-13T14:58:45.696Z,8.63
2023-03-13T15:03:50.327Z,41.72
2023-03-13T15:09:09.857Z,6.40
2023-03-13T15:14:29.594Z,7.85
2023-03-13T15:20:09.608Z,7.37
2023-03-13T15:25:21.311Z,11.70
2023-03-13T15:30:26.164Z,35.20
2023-03-13T15:36:04.575Z,12.85
2023-03-13T15:41:12.492Z,8.48
2023-03-13T15:46:17.772Z,7.78
2023-03-13T15:51:22.979Z,5.82
2023-03-13T15:56:32.297Z,9.32
2023-03-13T16:01:37.147Z,5.50
2023-03-13T16:06:42.007Z,6.40
2023-03-13T16:11:49.450Z,5.68
2023-03-13T16:16:54.367Z,6.30
2023-03-13T16:21:59.200Z,5.70
2023-03-13T16:27:08.774Z,6.25
2023-03-13T16:32:14.381Z,6.35
2023-03-13T16:37:20.127Z,7.07
2023-03-13T16:42:27.556Z,34.55
2023-03-13T16:47:32.678Z,40.70
2023-03-13T16:52:37.347Z,60.25
2023-03-13T16:57:45.076Z,16.27
2023-03-13T17:02:50.071Z,23.00
2023-03-13T17:07:55.115Z,18.02
2023-03-13T17:13:03.038Z,20.65
2023-03-13T17:18:07.916Z,9.30
2023-03-13T17:23:13.076Z,10.48
2023-03-13T17:28:20.594Z,12.27
2023-03-13T17:33:25.439Z,17.35
2023-03-13T17:38:30.193Z,5.18
2023-03-13T17:43:37.548Z,5.20
2023-03-13T17:48:42.360Z,4.85
2023-03-13T17:53:47.143Z,4.57
2023-03-13T17:58:57.895Z,4.60
2023-03-13T18:04:03.045Z,5.82
2023-03-13T18:09:09.061Z,5.00
2023-03-13T18:14:16.644Z,4.20
2023-03-13T18:19:22.811Z,6.45
2023-03-13T18:24:27.706Z,6.93
2023-03-13T18:29:35.068Z,6.93
2023-03-13T18:34:39.838Z,6.40
2023-03-13T18:39:44.789Z,7.15
2023-03-13T18:44:52.204Z,7.35
2023-03-13T18:49:57.139Z,12.43
2023-03-13T18:55:01.965Z,10.27
2023-03-13T19:00:15.285Z,7.60
2023-03-13T19:05:20.301Z,9.05
2023-03-13T19:10:26.695Z,7.40
2023-03-13T19:15:34.829Z,5.75
2023-03-13T19:20:39.590Z,5.80
2023-03-13T19:25:44.575Z,7.00
2023-03-13T19:30:51.890Z,5.03
2023-03-13T19:35:56.643Z,6.45
2023-03-13T19:41:01.584Z,5.63
2023-03-13T19:46:20.588Z,9.20
2023-03-13T19:51:26.171Z,5.90
2023-03-13T19:56:31.800Z,5.68
2023-03-13T20:01:39.281Z,6.68
2023-03-13T20:06:44.433Z,7.38
2023-03-13T20:11:49.304Z,6.70
2023-03-13T20:17:06.233Z,5.95
2023-03-13T20:22:10.923Z,5.97
2023-03-13T20:27:15.810Z,5.53
2023-03-13T20:32:30.408Z,6.32
2023-03-13T20:37:35.310Z,6.40
2023-03-13T20:53:22.783Z,5.30
2023-03-13T20:58:27.610Z,5.28
2023-03-13T21:03:35.764Z,5.75
2023-03-13T21:08:43.699Z,26.45
2023-03-13T21:13:48.665Z,23.00
2023-03-13T21:18:53.505Z,9.77
2023-03-13T21:24:01.099Z,5.35
2023-03-13T21:29:13.379Z,6.38
2023-03-13T21:34:18.310Z,5.38
2023-03-13T21:39:25.796Z,11.48
2023-03-13T21:44:30.595Z,9.52
2023-03-13T21:49:35.429Z,5.22
2023-03-13T21:54:42.831Z,6.10
2023-03-13T21:59:47.698Z,11.20
2023-03-13T22:04:52.470Z,11.18
2023-03-13T22:10:00.012Z,5.22
2023-03-13T22:15:04.827Z,5.50
2023-03-13T22:20:11.591Z,5.40
2023-03-13T22:25:19.564Z,4.82
2023-03-13T22:30:24.440Z,3.92
2023-03-13T22:35:29.241Z,4.97
2023-03-13T22:40:36.948Z,4.43
2023-03-13T22:45:41.675Z,4.22
2023-03-13T22:50:46.472Z,4.13
2023-03-13T22:55:54.006Z,4.65
2023-03-13T23:00:59.158Z,3.83
2023-03-13T23:06:04.041Z,4.25
2023-03-13T23:11:11.570Z,4.32
2023-03-13T23:16:16.502Z,3.90
2023-03-13T23:21:21.501Z,3.67
2023-03-13T23:26:29.084Z,3.42
2023-03-13T23:31:34.203Z,3.92
2023-03-13T23:36:38.935Z,3.92
2023-03-13T23:41:46.539Z,3.78
2023-03-13T23:46:51.357Z,3.95
2023-03-13T23:51:56.136Z,4.15
2023-03-13T23:57:03.668Z,4.68
